KGEY/GEY METAR and TAF weather

Enter ICAO airport designator
Station Type Date Time Source
KGEY METAR 2020/07/11 01:53 UTC NOAA

KGEY 110153Z AUTO 33017G23KT 10SM CLR 27/06 A3008 RMK AO2 PK WND 31027/0118 SLP148 T02720061


Station Type Date Time Source
KGEY Decoded METAR 2020/07/11 01:53 UTC NOAA

SOUTH BIG HORN COUNTY AIRPORT , WY, United States (KGEY) 44-31N 108-05W 1191M
Jul 10, 2020 - 09:53 PM EDT / 2020.07.11 0153 UTC
Wind: from the NNW (330 degrees) at 20 MPH (17 KT) gusting to 26 MPH (23 KT):0
Visibility: 10 mile(s):0
Sky conditions: clear
Temperature: 81.0 F (27.2 C)
Dew Point: 43.0 F (6.1 C)
Relative Humidity: 26%
Pressure (altimeter): 30.08 in. Hg (1018 hPa)
ob: KGEY 110153Z AUTO 33017G23KT 10SM CLR 27/06 A3008 RMK AO2 PK WND 31027/0118 SLP148 T02720061
cycle: 2

Station Type Date Time Source
KGEY TAF UTC NOAA

Error!

Example: see airport list